Weather reports worldwide

Advertisment
Zinnwald-Georgenfeld, Germany (10582): temperature & dewpoint: 20.05.2019 00:00:00 - 26.05.2019 00:00:00 (CEST)Zinnwald-Georgenfeld, Germany (10582): temperature 5cm & temperature -5cm: 20.05.2019 00:00:00 - 26.05.2019 00:00:00 (CEST)Zinnwald-Georgenfeld, Germany (10582): temperature -20cm & temperature -100cm: 20.05.2019 00:00:00 - 26.05.2019 00:00:00 (CEST)Zinnwald-Georgenfeld, Germany (10582): wind speed & gusts: 20.05.2019 00:00:00 - 26.05.2019 00:00:00 (CEST)Zinnwald-Georgenfeld, Germany (10582): wind direction: 20.05.2019 00:00:00 - 26.05.2019 00:00:00 (CEST)Zinnwald-Georgenfeld, Germany (10582): visibility: 20.05.2019 00:00:00 - 26.05.2019 00:00:00 (CEST)Zinnwald-Georgenfeld, Germany (10582): sunshine duration: 20.05.2019 00:00:00 - 26.05.2019 00:00:00 (CEST)Zinnwald-Georgenfeld, Germany (10582): precipitation: 20.05.2019 00:00:00 - 26.05.2019 00:00:00 (CEST)
Date & Time tt [°C] td [°C] tt 5cm [°C] tt -5cm [°C] tt -20cm [°C] tt -100cm [°C] ff [km/h] ff [kn] fx [km/h] fx [kn] dd vv [km] sd [min] rr [mm]
26.05.2019 00:00:00 7,9 6,3 6,3 9,2 12,2 8,4 15 8 21 11 N 7 0 0,0
25.05.2019 23:00:00 9,1 6,5 7,9 10,1 12,5 8,4 16 9 21 11 N 11 0 0,0
25.05.2019 22:00:00 9,8 7,7 7,9 11,1 12,8 8,4 11 6 15 8 NNW 4,5 0 0,0
25.05.2019 21:00:00 11,2 8,0 9,3 12,6 12,9 8,4 10 6 23 12 NW 8 18 0,0
25.05.2019 20:00:00 12,8 9,2 12,6 14,2 13,0 8,4 15 8 24 13 NNW 10 13 0,0
25.05.2019 19:00:00 13,0 9,6 13,0 14,8 13,0 8,4 9 5 14 8 N 15 7 0,0
25.05.2019 18:00:00 12,7 9,2 13,4 15,1 13,0 8,3 9 5 14 7 WSW 18 0 0,0
25.05.2019 17:00:00 12,1 9,3 11,7 15,2 12,9 8,3 11 6 21 12 S 14 0 0,1
25.05.2019 16:00:00 13,7 9,0 14,2 16,6 12,6 8,3 8 4 18 10 NNW 15 6 0,0
25.05.2019 15:00:00 13,6 8,7 17,7 17,6 12,4 8,3 11 6 20 11 NE 19 16 0,0
25.05.2019 14:00:00 12,8 9,7 14,9 16,4 12,1 8,3 10 5 21 11 E 10 5 0,0
25.05.2019 13:00:00 14,7 8,4 15,6 17,1 11,6 8,3 11 6 23 12 NW 13 12 0,0
25.05.2019 12:00:00 14,8 8,7 15,9 17,0 11,2 8,3 11 6 19 10 NNW 17 19 0,0
25.05.2019 11:00:00 14,1 8,1 15,3 15,3 10,8 8,3 5 3 14 8 NW 21 0 0,0
25.05.2019 10:00:00 13,6 8,0 15,7 15,2 10,4 8,3 10 5 15 8 NE 16 23 0,0
25.05.2019 09:00:00 13,6 7,8 14,5 13,8 10,1 8,3 8 4 16 8 NNE 18 60 0,0
25.05.2019 08:00:00 12,5 6,9 12,6 10,9 10,1 8,2 8 4 17 9 NW 26 60 0,0
25.05.2019 07:00:00 11,1 5,1 10,2 8,4 10,2 8,2 10 6 16 9 WNW 39 41 0,0
25.05.2019 06:00:00 10,4 4,0 8,0 7,4 10,5 8,2 12 6 17 9 WNW 37 2 0,0
25.05.2019 05:00:00 10,0 4,0 5,6 7,5 10,8 8,2 11 6 14 7 WNW 33 0 0,0
25.05.2019 04:00:00 10,2 4,5 6,0 8,0 11,2 8,2 12 6 17 9 WNW 35 0 0,0
25.05.2019 03:00:00 10,8 5,0 8,5 8,6 11,5 8,2 14 8 21 11 WNW 39 0 0,0
25.05.2019 02:00:00 11,0 4,9 9,1 9,0 11,9 8,2 17 9 22 12 WNW 37 0 0,0
25.05.2019 01:00:00 10,6 4,4 7,7 9,3 12,2 8,2 14 7 17 9 W 39 0 0,0
25.05.2019 00:00:00 10,8 4,0 6,2 9,9 12,6 8,2 12 6 14 8 WNW 46 0 0,0
24.05.2019 23:00:00 11,6 4,8 7,4 11,2 13,0 8,2 11 6 14 8 WNW 42 0 0,0
24.05.2019 22:00:00 12,4 5,5 10,7 12,2 13,3 8,2 11 6 14 7 WNW 31 0 0,0
24.05.2019 21:00:00 13,1 5,9 10,3 13,3 13,5 8,2 10 5 20 11 NW 41 11 0,0
24.05.2019 20:00:00 14,9 5,6 14,0 15,3 13,6 8,2 13 7 21 11 NW 35 27 0,0
24.05.2019 19:00:00 15,4 4,9 14,9 16,5 13,6 8,2 11 6 24 13 NW 42 21 0,0
24.05.2019 18:00:00 15,7 5,0 15,6 18,3 13,3 8,2 14 8 25 14 W 31 28 0,0
24.05.2019 17:00:00 16,5 5,2 18,0 20,2 12,9 8,2 13 7 26 14 NW 26 45 0,0
24.05.2019 16:00:00 16,8 5,5 19,5 20,9 12,3 8,2 13 7 29 16 NNW 26 49 0,0
24.05.2019 15:00:00 16,1 4,6 18,9 20,0 11,6 8,2 12 7 28 15 WNW 25 42 0,0
24.05.2019 14:00:00 15,6 4,7 18,8 19,4 11,0 8,2 14 8 27 14 NW 21 39 0,0
24.05.2019 13:00:00 14,9 5,5 17,1 18,3 10,4 8,2 13 7 28 15 WNW 24 35 0,0
24.05.2019 12:00:00 14,1 5,5 16,5 16,2 9,8 8,2 12 7 28 15 NW 16 30 0,0
24.05.2019 11:00:00 13,7 5,3 15,4 14,9 9,2 8,2 16 9 30 16 NNW 27 29 0,0
24.05.2019 10:00:00 13,1 5,6 14,4 13,4 8,8 8,1 11 6 23 13 NW 29 42 0,0
24.05.2019 09:00:00 12,2 4,0 12,5 11,8 8,4 8,1 16 8 23 12 NNW 31 60 0,0
24.05.2019 08:00:00 10,7 4,5 10,6 8,5 8,4 8,1 7 4 11 6 W 39 60 0,0
24.05.2019 07:00:00 9,5 3,6 8,7 6,2 8,6 8,1 6 3 9 5 W 29 46 0,0
24.05.2019 06:00:00 7,8 2,1 2,2 4,9 8,9 8,1 7 4 8 5 W 37 5 0,0
24.05.2019 05:00:00 7,3 1,5 0,9 5,0 9,3 8,1 6 4 8 4 WSW 41 0 0,0
24.05.2019 04:00:00 7,5 1,2 1,0 5,4 9,7 8,1 6 3 6 4 WSW 38 0 0,0
24.05.2019 03:00:00 7,6 0,8 0,9 5,9 10,1 8,1 1 1 3 2 W 50 0 0,0
24.05.2019 02:00:00 7,7 2,3 1,7 6,4 10,5 8,1 3 2 6 4 N 40 0 0,0
24.05.2019 01:00:00 7,6 0,3 1,6 7,0 10,9 8,1 5 3 8 4 N 33 0 0,0
24.05.2019 00:00:00 7,3 1,8 2,5 8,0 11,3 8,1 8 4 13 7 N 43 0 0,0
23.05.2019 23:00:00 7,7 2,6 5,2 8,8 11,7 8,1 11 6 14 7 N 36 0 0,0
23.05.2019 22:00:00 8,3 3,1 5,9 9,9 12,1 8,1 11 6 15 8 N 40 0 0,0
23.05.2019 21:00:00 9,4 3,6 7,6 11,5 12,4 8,1 11 6 21 12 NNW 36 25 0,0
23.05.2019 20:00:00 11,1 3,7 10,5 13,3 12,5 8,1 16 9 30 16 NNW 29 52 0,0
23.05.2019 19:00:00 11,4 3,8 11,8 14,6 12,5 8,1 18 10 34 18 NNW 31 59 0,0
23.05.2019 18:00:00 12,3 3,2 13,5 17,1 12,2 8,1 22 12 36 19 N 21 60 0,0
23.05.2019 17:00:00 12,9 3,1 15,4 18,3 11,8 8,1 19 10 34 18 NNW 23 57 0,0
23.05.2019 16:00:00 12,5 1,3 14,0 19,1 11,2 8,1 21 11 34 18 NNW 26 57 0,0
23.05.2019 15:00:00 12,5 4,7 15,4 19,4 10,5 8,1 22 12 36 19 NNW 19 60 0,0
23.05.2019 14:00:00 12,0 3,9 15,1 18,3 9,7 8,1 17 9 35 19 NNW 18 60 0,0
23.05.2019 13:00:00 10,7 3,1 12,9 16,9 9,0 8,1 23 12 39 21 NW 20 60 0,0
23.05.2019 12:00:00 10,0 4,9 12,4 14,9 8,4 8,1 24 13 39 21 NNW 21 47 0,0
23.05.2019 11:00:00 8,3 5,0 10,3 10,7 8,1 8,1 22 12 44 24 NW 14 18 0,0
23.05.2019 10:00:00 6,3 4,6 6,8 8,6 8,0 8,1 23 13 42 23 NNW 10 0 0,0
23.05.2019 09:00:00 5,3 3,7 5,6 7,2 8,1 8,1 27 14 40 21 NNW 13 0 0,0
23.05.2019 08:00:00 4,8 3,2 4,8 6,7 8,2 8,1 30 16 48 26 NNW 25 0 0,0
23.05.2019 07:00:00 4,5 3,0 4,4 6,3 8,3 8,1 31 17 45 24 NNW 29 0 0,0
23.05.2019 06:00:00 4,5 3,7 4,3 6,3 8,4 8,0 27 14 48 26 NNW 8 0 0,0
23.05.2019 05:00:00 4,8 4,2 4,7 6,5 8,6 8,0 27 14 46 25 NNW 5 0 0,0
23.05.2019 04:00:00 5,1 4,6 5,0 6,8 8,7 8,0 31 17 52 28 NNW 4,1 0 0,0
23.05.2019 03:00:00 5,5 5,0 5,4 7,0 8,9 8,0 33 18 54 29 NNW 2,6 0 0,0
23.05.2019 02:00:00 5,8 5,3 5,7 7,1 9,0 8,0 34 19 59 32 NNW 3,6 0 0,0
23.05.2019 01:00:00 5,9 5,4 5,7 7,2 9,2 8,0 32 18 63 34 NNW 3,9 0 0,0
23.05.2019 00:00:00 5,8 5,2 5,7 7,4 9,3 8,0 40 22 64 34 NNW 4,0 0 0,0
22.05.2019 23:00:00 5,9 5,4 5,8 7,7 9,5 8,0 36 19 55 30 NNW 3,9 0 0,0
22.05.2019 22:00:00 6,3 6,0 6,3 8,0 9,6 8,0 32 17 52 28 NW 0,2 0 0,1
22.05.2019 21:00:00 6,5 6,2 6,5 8,3 9,7 7,9 29 16 54 29 NW 0,2 0 0,2
22.05.2019 20:00:00 6,8 6,5 6,8 8,6 9,8 7,9 33 18 66 36 NW 0,1 0 0,3
22.05.2019 19:00:00 7,1 6,8 7,1 9,0 9,9 7,9 32 18 61 33 NW 0,2 0 0,6
22.05.2019 18:00:00 7,3 7,0 7,4 9,2 10,0 7,9 34 19 63 34 NW 0,2 0 0,6
22.05.2019 17:00:00 7,4 7,1 7,5 9,4 10,1 7,9 29 15 57 31 NW 0,2 0 1,1
22.05.2019 16:00:00 7,2 6,9 7,3 9,4 10,2 7,9 29 16 57 31 NW 0,2 0 0,9
22.05.2019 15:00:00 7,2 7,0 7,4 9,3 10,3 7,9 32 18 58 31 NW 0,1 0 0,1
22.05.2019 14:00:00 7,0 6,7 7,2 9,5 10,4 7,8 29 16 56 30 NW 0,1 0 0,5
22.05.2019 13:00:00 7,3 7,0 7,6 9,7 10,5 7,8 28 15 58 32 NW 0,4 0 1,6
22.05.2019 12:00:00 7,2 6,9 7,3 9,6 10,7 7,8 34 18 60 33 NW 0,2 0 0,4
22.05.2019 11:00:00 7,4 7,1 7,6 9,8 10,8 7,8 32 17 61 33 NW 0,1 0 0,3
22.05.2019 10:00:00 7,5 7,2 7,6 10,0 10,9 7,8 32 17 57 31 NW 0,1 0 0,1
22.05.2019 09:00:00 7,9 7,6 8,0 10,0 11,1 7,8 29 16 52 28 NW 0,1 0 0,5
22.05.2019 08:00:00 8,2 7,9 8,2 10,1 11,2 7,7 29 16 51 27 NW 0,1 0 0,7
22.05.2019 07:00:00 8,8 8,5 8,7 10,3 11,4 7,7 27 14 47 25 NW 0,1 0 0,3
22.05.2019 06:00:00 8,9 8,6 8,9 10,5 11,6 7,7 31 17 53 29 NW 0,1 0 0,2
22.05.2019 05:00:00 9,3 9,0 9,2 10,7 11,8 7,7 29 15 53 28 NW 0,1 0 0,3
22.05.2019 04:00:00 9,6 9,3 9,5 11,0 12,0 7,7 26 14 49 27 NW 0,1 0 1,1
22.05.2019 03:00:00 9,6 9,3 9,5 11,2 12,2 7,7 30 16 52 28 NW 0,1 0 0,3
22.05.2019 02:00:00 10,0 9,6 9,9 11,6 12,5 7,7 24 13 41 22 NW 0,1 0 4,0
22.05.2019 01:00:00 10,4 10,0 10,3 12,0 12,7 7,7 22 12 41 22 NW 0,3 0 0,5
22.05.2019 00:00:00 11,1 10,7 11,0 12,4 12,9 7,6 24 13 43 23 NW 0,1 0 0,0
21.05.2019 23:00:00 11,9 11,1 11,7 12,6 13,2 7,6 23 12 43 23 NW 2,8 0 0,0
21.05.2019 22:00:00 12,4 9,7 11,2 12,6 13,5 7,6 20 11 30 16 NW 20 0 0,0
21.05.2019 21:00:00 13,2 9,6 11,8 13,9 13,7 7,6 13 7 24 13 NW 35 28 0,0
21.05.2019 20:00:00 14,9 9,0 14,4 15,6 13,7 7,6 19 10 29 16 NNW 63 48 0,0
21.05.2019 19:00:00 15,3 9,6 17,2 16,0 13,8 7,6 14 8 25 13 N 39 16 0,0
21.05.2019 18:00:00 14,8 9,2 14,7 17,2 13,7 7,6 4 2 10 5 NNE 64 2 0,0
21.05.2019 17:00:00 14,5 9,4 15,1 18,0 13,4 7,6 8 4 15 8 SE 46 2 0,0
21.05.2019 16:00:00 15,1 8,9 16,8 20,2 12,9 7,6 5 3 18 10 SSE 56 30 0,0
21.05.2019 15:00:00 14,8 9,4 18,3 20,7 12,2 7,5 4 2 17 9 NNE 59 56 0,0
21.05.2019 14:00:00 13,8 9,2 17,9 18,8 11,7 7,5 11 6 19 10 SSE 44 28 0,0
21.05.2019 13:00:00 12,2 8,7 14,0 17,5 11,1 7,5 10 6 29 15 SE 31 30 0,0
21.05.2019 12:00:00 12,1 9,5 15,2 16,9 10,7 7,5 17 9 24 13 S 26 26 0,0
21.05.2019 11:00:00 10,7 9,1 12,6 14,9 10,3 7,5 14 8 27 14 SE 15 7 0,0
21.05.2019 10:00:00 9,4 9,0 11,1 12,8 10,2 7,5 13 7 26 14 SSE 3,0 0 0,0
21.05.2019 09:00:00 9,0 8,7 10,1 11,6 10,1 7,4 19 10 28 15 SSE 0,1 0 0,0
21.05.2019 08:00:00 8,5 8,1 9,0 10,5 10,1 7,4 16 9 25 13 SSE 0,1 0 0,0
21.05.2019 07:00:00 8,5 8,2 8,8 10,1 10,1 7,4 12 7 21 11 SE - 0 0,0
21.05.2019 06:00:00 8,6 8,2 8,7 9,8 10,2 7,4 15 8 21 11 SSE - 0 0,0
21.05.2019 05:00:00 8,9 8,6 8,9 9,7 10,3 7,4 14 8 34 18 S 0,1 0 0,0
21.05.2019 04:00:00 8,9 8,6 8,8 9,9 10,5 7,4 24 13 32 17 SSE 0,1 0 0,0
21.05.2019 03:00:00 9,1 8,7 9,0 10,1 10,6 7,4 18 10 26 14 SSE 0,1 0 0,0
21.05.2019 02:00:00 9,2 8,8 9,2 10,2 10,7 7,3 17 9 27 14 SE 0,1 0 0,0
21.05.2019 01:00:00 9,7 9,3 9,6 10,4 10,8 7,3 11 6 27 15 S 0,2 0 0,0
21.05.2019 00:00:00 9,9 9,5 9,8 10,5 10,9 7,3 15 8 23 12 SSE 0,1 0 0,0
20.05.2019 23:00:00 9,8 9,2 9,5 10,4 11,1 7,3 14 8 22 12 SE 4,2 0 0,0
20.05.2019 22:00:00 9,2 8,5 8,4 10,5 11,2 7,3 11 6 22 12 SE 8 0 0,0
20.05.2019 21:00:00 9,5 9,0 9,4 11,4 11,3 7,3 17 9 23 13 SE 0,1 0 0,0
20.05.2019 20:00:00 9,8 9,3 10,0 12,0 11,4 7,2 13 7 19 10 SE 0,1 0 0,0
20.05.2019 19:00:00 10,0 9,2 10,2 12,7 11,4 7,2 10 6 27 15 S 4,1 2 0,0
20.05.2019 18:00:00 10,1 9,4 10,9 12,7 11,3 7,2 20 11 28 15 S 12 0 0,0
20.05.2019 17:00:00 10,0 9,0 10,5 12,7 11,3 7,2 19 10 28 15 S 53 0 0,0
20.05.2019 16:00:00 9,8 8,9 10,3 12,3 11,4 7,2 14 8 40 21 SSE 67 0 5,2
20.05.2019 15:00:00 11,4 10,2 11,0 13,3 11,3 7,1 19 11 32 18 SE 1,1 0 0,4
20.05.2019 14:00:00 11,8 10,8 11,6 13,0 11,3 7,1 20 11 30 16 N 3,0 0 1,4
20.05.2019 13:00:00 12,6 10,2 12,0 13,6 11,2 7,1 16 9 24 13 N 12 0 0,1
20.05.2019 12:00:00 13,5 10,4 13,4 13,7 11,0 7,1 9 5 17 9 ENE 15 0 0,0
20.05.2019 11:00:00 13,8 9,6 14,2 13,6 10,9 7,1 10 5 19 10 NE 26 0 0,1
20.05.2019 10:00:00 13,8 8,6 14,1 13,5 10,7 7,1 11 6 15 8 ENE 34 0 0,0
20.05.2019 09:00:00 12,9 10,0 13,1 12,4 10,6 7,0 6 4 13 7 SE 17 0 0,0
20.05.2019 08:00:00 13,1 9,9 13,5 12,4 10,6 7,0 9 5 16 9 SE 15 23 0,0
20.05.2019 07:00:00 11,0 9,2 10,4 10,1 10,7 7,0 11 6 20 11 S 12 0 0,0
20.05.2019 06:00:00 10,8 9,0 9,7 9,8 10,9 7,0 12 7 14 8 SSE 11 0 0,0
20.05.2019 05:00:00 10,8 8,4 9,2 10,2 11,1 7,0 13 7 20 11 S 15 0 0,0
20.05.2019 04:00:00 11,4 8,4 10,5 10,4 11,2 7,0 16 9 21 11 S 17 0 0,0
20.05.2019 03:00:00 11,8 7,9 10,7 10,5 11,5 6,9 16 8 22 12 S 22 0 0,0
20.05.2019 02:00:00 12,1 7,7 11,0 10,6 11,7 6,9 16 8 26 14 SSE 26 0 0,0
20.05.2019 01:00:00 11,5 6,7 8,9 10,5 12,0 6,9 12 7 19 10 SSE 31 0 0,0
20.05.2019 00:00:00 12,6 7,0 10,1 11,4 12,3 6,9 13 7 18 10 SSE 30 0 0,0

tt = temperature
td = dewpoint
tt 5cm = temperature 5cm
tt -5cm = temperature -5cm
tt -20cm = temperature -20cm
tt -100cm = temperature -100cm
ff = wind speed
fx = gusts
dd = wind direction
vv = visibility
sd = sunshine duration
rr = precipitation

Next stations